Time;durP1;ratioP1;P1;durP2;ratioP2;P2;SDS_P1;SDS_P2;PMS_P1;PMS_P2;Temp;Humidity;BMP_temperature;BMP_pressure;BME280_temperature;BME280_humidity;BME280_pressure;Samples;Min_cycle;Max_cycle;Signal;HPM_P1;HPM_P2
2022/04/03 00:00:45;;;;;;;2.03;1.17;;;;;;;;;;5053564;28;20021;-85
2022/04/03 00:03:11;;;;;;;2.38;1.75;;;;;;;;;;5053737;28;20082;-87
2022/04/03 00:05:41;;;;;;;5.43;1.95;;;;;;;;;;5054791;28;20033;-86
2022/04/03 00:08:08;;;;;;;2.38;1.58;;;;;;;;;;5051500;28;20453;-84
2022/04/03 00:10:35;;;;;;;2.90;1.83;;;;;;;;;;5054897;28;20043;-86
2022/04/03 00:13:01;;;;;;;3.65;2.13;;;;;;;;;;5054835;28;20096;-86
2022/04/03 00:15:27;;;;;;;3.90;2.08;;;;;;;;;;5053184;28;20039;-83
2022/04/03 00:17:52;;;;;;;3.97;2.53;;;;;;;;;;5053143;28;20024;-83
2022/04/03 00:20:19;;;;;;;9.38;4.72;;;;;;;;;;5052851;28;20150;-84
2022/04/03 00:22:48;;;;;;;10.77;5.43;;;;;;;;;;5053084;28;20016;-85
2022/04/03 00:25:15;;;;;;;12.13;6.13;;;;;;;;;;5054274;28;20408;-83
2022/04/03 00:27:40;;;;;;;9.95;5.95;;;;;;;;;;5054091;28;20013;-85
2022/04/03 00:30:07;;;;;;;7.07;4.85;;;;;;;;;;5053280;28;20040;-84
2022/04/03 00:32:33;;;;;;;4.63;3.75;;;;;;;;;;5052817;28;20476;-83
2022/04/03 00:34:58;;;;;;;11.52;3.80;;;;;;;;;;5054243;28;20027;-88
2022/04/03 00:37:25;;;;;;;4.75;3.85;;;;;;;;;;5054641;28;20104;-86
2022/04/03 00:39:50;;;;;;;5.07;3.35;;;;;;;;;;5052865;28;20054;-84
2022/04/03 00:42:16;;;;;;;4.65;3.28;;;;;;;;;;5053753;28;20467;-83
2022/04/03 00:44:42;;;;;;;4.40;3.33;;;;;;;;;;5052728;28;20021;-83
2022/04/03 00:47:07;;;;;;;4.43;3.13;;;;;;;;;;5052312;28;20416;-83
2022/04/03 00:49:33;;;;;;;4.47;2.92;;;;;;;;;;5051961;28;20079;-82
2022/04/03 00:51:59;;;;;;;6.72;4.15;;;;;;;;;;5053345;28;20064;-85
2022/04/03 00:54:24;;;;;;;4.70;3.38;;;;;;;;;;5053398;28;20432;-82
2022/04/03 00:56:51;;;;;;;5.70;3.58;;;;;;;;;;5053895;28;20062;-83
2022/04/03 00:59:16;;;;;;;5.20;3.92;;;;;;;;;;5053301;28;20025;-82
2022/04/03 01:01:43;;;;;;;8.73;4.00;;;;;;;;;;5052139;28;20485;-85
2022/04/03 01:04:08;;;;;;;4.45;3.60;;;;;;;;;;5053602;28;20381;-84
2022/04/03 01:06:35;;;;;;;7.03;3.85;;;;;;;;;;5052085;28;20021;-85
2022/04/03 01:09:02;;;;;;;5.53;3.40;;;;;;;;;;5051945;28;20024;-85
2022/04/03 01:11:28;;;;;;;8.55;4.97;;;;;;;;;;5052047;28;20025;-83
2022/04/03 01:13:54;;;;;;;4.57;3.55;;;;;;;;;;5051812;28;20438;-82
2022/04/03 01:16:20;;;;;;;6.80;3.60;;;;;;;;;;5052645;28;20108;-83
2022/04/03 01:18:46;;;;;;;5.13;3.88;;;;;;;;;;5051817;28;20082;-84
2022/04/03 01:21:13;;;;;;;7.10;4.47;;;;;;;;;;5051953;28;20028;-82
2022/04/03 01:23:38;;;;;;;8.38;3.75;;;;;;;;;;5051879;28;20020;-83
2022/04/03 01:26:05;;;;;;;4.53;3.17;;;;;;;;;;5051969;28;20499;-83
2022/04/03 01:28:30;;;;;;;5.00;3.60;;;;;;;;;;5052637;28;20040;-82
2022/04/03 01:30:56;;;;;;;4.35;3.92;;;;;;;;;;5052643;28;20469;-84
2022/04/03 01:33:21;;;;;;;5.80;3.20;;;;;;;;;;5052435;28;20781;-83
2022/04/03 01:35:47;;;;;;;5.13;2.30;;;;;;;;;;5051601;28;20029;-82
2022/04/03 01:38:13;;;;;;;3.88;1.60;;;;;;;;;;5051562;28;20159;-81
2022/04/03 01:40:38;;;;;;;3.85;1.98;;;;;;;;;;5051317;28;20025;-83
2022/04/03 01:43:06;;;;;;;4.13;1.98;;;;;;;;;;5052462;28;20029;-82
2022/04/03 01:45:36;;;;;;;3.85;2.47;;;;;;;;;;5052899;28;20066;-83
2022/04/03 01:48:02;;;;;;;2.92;1.98;;;;;;;;;;5050649;28;20043;-84
2022/04/03 01:50:27;;;;;;;5.70;2.50;;;;;;;;;;5054392;28;20540;-83
2022/04/03 01:52:53;;;;;;;4.30;2.40;;;;;;;;;;5052174;28;20021;-83
2022/04/03 01:55:19;;;;;;;3.25;2.20;;;;;;;;;;5052219;28;20039;-82
2022/04/03 01:57:44;;;;;;;5.45;3.40;;;;;;;;;;5051176;28;20401;-81
2022/04/03 02:00:11;;;;;;;7.28;4.13;;;;;;;;;;5052275;28;20452;-83
2022/04/03 02:02:40;;;;;;;3.65;2.53;;;;;;;;;;5050259;28;20029;-82
2022/04/03 02:05:07;;;;;;;4.90;3.38;;;;;;;;;;5052120;28;20082;-83
2022/04/03 02:07:35;;;;;;;4.63;3.03;;;;;;;;;;5056026;28;20048;-83
2022/04/03 02:10:03;;;;;;;6.38;2.90;;;;;;;;;;5050577;28;20534;-82
2022/04/03 02:12:28;;;;;;;6.18;2.63;;;;;;;;;;5050695;28;20036;-83
2022/04/03 02:14:54;;;;;;;4.93;2.97;;;;;;;;;;5051832;28;20520;-82
2022/04/03 02:17:19;;;;;;;7.20;3.45;;;;;;;;;;5052197;28;20416;-81
2022/04/03 02:19:45;;;;;;;3.22;2.30;;;;;;;;;;5050750;28;20028;-82
2022/04/03 02:22:10;;;;;;;3.83;2.25;;;;;;;;;;5049885;28;20025;-83
2022/04/03 02:24:36;;;;;;;2.05;1.60;;;;;;;;;;5050689;28;20468;-83
2022/04/03 02:27:01;;;;;;;3.03;1.67;;;;;;;;;;5052355;28;20050;-82
2022/04/03 02:29:27;;;;;;;4.43;2.30;;;;;;;;;;5050838;28;20064;-82
2022/04/03 02:31:52;;;;;;;3.33;2.22;;;;;;;;;;5052564;28;20067;-82
2022/04/03 02:34:18;;;;;;;2.65;1.40;;;;;;;;;;5051990;28;20051;-84
2022/04/03 02:36:44;;;;;;;1.85;1.20;;;;;;;;;;5052523;28;20102;-83
2022/04/03 02:39:12;;;;;;;2.10;1.60;;;;;;;;;;5050159;28;20060;-84
2022/04/03 02:41:38;;;;;;;1.13;1.02;;;;;;;;;;5050340;28;20033;-82
2022/04/03 02:44:04;;;;;;;3.70;1.30;;;;;;;;;;5050272;28;20109;-83
2022/04/03 02:46:30;;;;;;;2.78;1.25;;;;;;;;;;5050455;28;20016;-83
2022/04/03 02:48:56;;;;;;;2.88;1.25;;;;;;;;;;5051658;28;20100;-84
2022/04/03 02:51:24;;;;;;;4.70;1.50;;;;;;;;;;5050504;28;20059;-84
2022/04/03 02:53:50;;;;;;;3.33;1.35;;;;;;;;;;5049882;28;20021;-84
2022/04/03 02:56:15;;;;;;;2.97;1.35;;;;;;;;;;5050613;28;20051;-84
2022/04/03 02:58:41;;;;;;;1.20;0.80;;;;;;;;;;5051672;28;20115;-83
2022/04/03 03:01:07;;;;;;;0.55;0.38;;;;;;;;;;5052529;28;20028;-84
2022/04/03 03:03:32;;;;;;;1.90;0.63;;;;;;;;;;5050576;28;20485;-84
2022/04/03 03:05:58;;;;;;;1.90;0.80;;;;;;;;;;5051708;28;20032;-85
2022/04/03 03:08:24;;;;;;;1.20;0.63;;;;;;;;;;5051821;28;20021;-84
2022/04/03 03:10:49;;;;;;;1.95;0.85;;;;;;;;;;5051626;28;20606;-84
2022/04/03 03:13:15;;;;;;;0.52;0.52;;;;;;;;;;5050894;28;20067;-83
2022/04/03 03:15:40;;;;;;;3.35;0.60;;;;;;;;;;5055031;28;20374;-83
2022/04/03 03:18:06;;;;;;;1.73;0.73;;;;;;;;;;5055883;28;20090;-84
2022/04/03 03:20:32;;;;;;;0.88;0.60;;;;;;;;;;5056068;28;20021;-84
2022/04/03 03:22:57;;;;;;;1.02;0.80;;;;;;;;;;5054469;28;20162;-85
2022/04/03 03:25:23;;;;;;;1.27;0.70;;;;;;;;;;5054327;28;20052;-83
2022/04/03 03:27:49;;;;;;;1.98;0.88;;;;;;;;;;5054177;28;20579;-82
2022/04/03 03:30:14;;;;;;;1.80;0.80;;;;;;;;;;5053673;28;20033;-82
2022/04/03 03:32:40;;;;;;;1.52;0.90;;;;;;;;;;5055091;28;20029;-83
2022/04/03 03:35:06;;;;;;;0.40;0.30;;;;;;;;;;5055347;28;20025;-83
2022/04/03 03:37:32;;;;;;;0.82;0.50;;;;;;;;;;5055468;28;20025;-82
2022/04/03 03:39:57;;;;;;;0.75;0.52;;;;;;;;;;5052647;28;20079;-83
2022/04/03 03:42:23;;;;;;;0.63;0.40;;;;;;;;;;5055146;28;20025;-83
2022/04/03 03:44:49;;;;;;;0.47;0.45;;;;;;;;;;5054064;28;20338;-86
2022/04/03 03:47:14;;;;;;;0.40;0.40;;;;;;;;;;5054044;28;20377;-84
2022/04/03 03:49:40;;;;;;;0.52;0.52;;;;;;;;;;5054777;28;20100;-85
2022/04/03 03:52:05;;;;;;;2.30;0.68;;;;;;;;;;5054089;28;20127;-85
2022/04/03 03:54:32;;;;;;;1.33;0.70;;;;;;;;;;5054733;28;20483;-84
2022/04/03 03:56:58;;;;;;;0.95;0.60;;;;;;;;;;5054845;28;20465;-82
2022/04/03 03:59:24;;;;;;;0.47;0.40;;;;;;;;;;5053450;28;20366;-84
2022/04/03 04:01:50;;;;;;;0.50;0.40;;;;;;;;;;5053471;28;20021;-82
2022/04/03 04:04:15;;;;;;;0.63;0.50;;;;;;;;;;5053467;28;20037;-85
2022/04/03 04:06:41;;;;;;;0.32;0.32;;;;;;;;;;5054029;28;20028;-81
2022/04/03 04:09:06;;;;;;;1.55;0.60;;;;;;;;;;5054582;28;20021;-86
2022/04/03 04:11:32;;;;;;;2.38;0.60;;;;;;;;;;5053603;28;20032;-84
2022/04/03 04:13:58;;;;;;;2.25;0.50;;;;;;;;;;5053542;28;20475;-84
2022/04/03 04:16:23;;;;;;;0.95;0.43;;;;;;;;;;5053502;28;20393;-83
2022/04/03 04:18:51;;;;;;;0.93;0.50;;;;;;;;;;5053693;28;20041;-85
2022/04/03 04:21:17;;;;;;;0.73;0.50;;;;;;;;;;5054591;28;20029;-82
2022/04/03 04:23:43;;;;;;;2.15;0.50;;;;;;;;;;5054457;28;20032;-83
2022/04/03 04:26:08;;;;;;;0.95;0.60;;;;;;;;;;5053322;28;20033;-84
2022/04/03 04:28:34;;;;;;;1.85;0.50;;;;;;;;;;5052404;28;20021;-84
2022/04/03 04:31:00;;;;;;;1.25;0.57;;;;;;;;;;5053826;28;20027;-83
2022/04/03 04:33:25;;;;;;;0.68;0.57;;;;;;;;;;5053524;28;20059;-83
2022/04/03 04:35:51;;;;;;;1.15;0.60;;;;;;;;;;5052780;28;20473;-86
2022/04/03 04:38:17;;;;;;;0.98;0.60;;;;;;;;;;5052668;28;20484;-85
2022/04/03 04:40:43;;;;;;;1.38;0.32;;;;;;;;;;5053267;28;20051;-84
2022/04/03 04:43:09;;;;;;;0.68;0.38;;;;;;;;;;5052777;28;20093;-84
2022/04/03 04:45:34;;;;;;;0.52;0.50;;;;;;;;;;5052615;28;20484;-84
2022/04/03 04:48:00;;;;;;;1.23;0.55;;;;;;;;;;5053925;28;20021;-86
2022/04/03 04:50:31;;;;;;;0.65;0.40;;;;;;;;;;5055252;28;20031;-82
2022/04/03 04:52:57;;;;;;;1.33;0.30;;;;;;;;;;5052185;28;20021;-85
2022/04/03 04:55:24;;;;;;;0.98;0.57;;;;;;;;;;5053898;28;20025;-84
2022/04/03 04:57:54;;;;;;;0.40;0.32;;;;;;;;;;5051948;28;20028;-83
2022/04/03 05:00:21;;;;;;;0.40;0.40;;;;;;;;;;5053697;28;20029;-84
2022/04/03 05:02:48;;;;;;;0.60;0.45;;;;;;;;;;5053515;28;20107;-83
2022/04/03 05:05:15;;;;;;;0.40;0.40;;;;;;;;;;5052586;28;20127;-85
2022/04/03 05:07:42;;;;;;;0.40;0.40;;;;;;;;;;5053911;28;20032;-84
2022/04/03 05:10:09;;;;;;;0.93;0.55;;;;;;;;;;5051203;28;20037;-83
2022/04/03 05:12:35;;;;;;;1.23;0.40;;;;;;;;;;5052261;28;20031;-84
2022/04/03 05:15:01;;;;;;;1.75;0.50;;;;;;;;;;5051902;28;20392;-82
2022/04/03 05:17:27;;;;;;;0.30;0.30;;;;;;;;;;5053184;28;20033;-81
2022/04/03 05:19:54;;;;;;;0.52;0.45;;;;;;;;;;5051811;28;20035;-83
2022/04/03 05:22:23;;;;;;;0.30;0.20;;;;;;;;;;5052991;28;20476;-83
2022/04/03 05:24:53;;;;;;;0.50;0.30;;;;;;;;;;5051862;28;20028;-85
2022/04/03 05:27:19;;;;;;;0.35;0.35;;;;;;;;;;5049376;28;20029;-83
2022/04/03 05:29:45;;;;;;;1.40;0.30;;;;;;;;;;5051448;28;20115;-83
2022/04/03 05:32:11;;;;;;;1.27;0.60;;;;;;;;;;5051802;28;20029;-85
2022/04/03 05:34:36;;;;;;;0.60;0.40;;;;;;;;;;5052693;28;20489;-86
2022/04/03 05:37:02;;;;;;;0.32;0.20;;;;;;;;;;5051093;28;20107;-82
2022/04/03 05:39:27;;;;;;;0.30;0.30;;;;;;;;;;5052408;28;20040;-84
2022/04/03 05:41:54;;;;;;;2.28;0.60;;;;;;;;;;5051581;28;20025;-85
2022/04/03 05:44:20;;;;;;;0.57;0.40;;;;;;;;;;5052385;28;20021;-81
2022/04/03 05:46:45;;;;;;;1.42;0.47;;;;;;;;;;5051602;28;20029;-85
2022/04/03 05:49:11;;;;;;;0.77;0.20;;;;;;;;;;5051583;28;20040;-83
2022/04/03 05:51:37;;;;;;;0.63;0.40;;;;;;;;;;5054341;28;20025;-84
2022/04/03 05:54:03;;;;;;;0.57;0.38;;;;;;;;;;5053846;28;20378;-82
2022/04/03 05:56:31;;;;;;;0.63;0.50;;;;;;;;;;5051881;28;20465;-84
2022/04/03 05:58:57;;;;;;;0.80;0.40;;;;;;;;;;5052035;28;20033;-85
2022/04/03 06:01:23;;;;;;;1.10;0.43;;;;;;;;;;5052549;28;20108;-86
2022/04/03 06:03:49;;;;;;;0.32;0.30;;;;;;;;;;5052862;28;20029;-83
2022/04/03 06:06:15;;;;;;;1.63;0.32;;;;;;;;;;5052626;28;20033;-83
2022/04/03 06:08:41;;;;;;;0.50;0.50;;;;;;;;;;5052783;28;20491;-84
2022/04/03 06:11:07;;;;;;;1.08;0.63;;;;;;;;;;5052625;28;20033;-82
2022/04/03 06:13:32;;;;;;;0.50;0.30;;;;;;;;;;5051824;28;20032;-82
2022/04/03 06:15:58;;;;;;;2.22;0.50;;;;;;;;;;5052747;28;20025;-83
2022/04/03 06:18:23;;;;;;;2.53;1.55;;;;;;;;;;5052140;28;20120;-84
2022/04/03 06:20:49;;;;;;;1.55;0.50;;;;;;;;;;5051846;28;20087;-83
2022/04/03 06:23:17;;;;;;;0.65;0.40;;;;;;;;;;5050882;28;20032;-83
2022/04/03 06:25:48;;;;;;;0.50;0.32;;;;;;;;;;5052447;28;20107;-84
2022/04/03 06:28:14;;;;;;;0.60;0.57;;;;;;;;;;5055753;28;20534;-83
2022/04/03 06:30:39;;;;;;;0.98;0.45;;;;;;;;;;5051043;28;20024;-84
2022/04/03 06:33:05;;;;;;;0.50;0.40;;;;;;;;;;5050028;28;20587;-83
2022/04/03 06:35:31;;;;;;;0.40;0.40;;;;;;;;;;5048914;28;20029;-85
2022/04/03 06:37:56;;;;;;;1.25;0.60;;;;;;;;;;5051719;28;20055;-86
2022/04/03 06:40:23;;;;;;;0.55;0.40;;;;;;;;;;5050306;28;20032;-85
2022/04/03 06:42:49;;;;;;;1.35;0.90;;;;;;;;;;5052623;28;20029;-82
2022/04/03 06:45:15;;;;;;;1.42;0.60;;;;;;;;;;5051549;28;20112;-85
2022/04/03 06:47:41;;;;;;;0.75;0.45;;;;;;;;;;5051404;28;20415;-82
2022/04/03 06:50:08;;;;;;;1.00;0.40;;;;;;;;;;5049231;28;20032;-83
2022/04/03 06:52:34;;;;;;;0.40;0.40;;;;;;;;;;5049567;28;20528;-85
2022/04/03 06:54:59;;;;;;;1.15;0.63;;;;;;;;;;5047378;28;20537;-84
2022/04/03 06:57:25;;;;;;;0.95;0.50;;;;;;;;;;5049685;28;20103;-85
2022/04/03 06:59:50;;;;;;;0.85;0.50;;;;;;;;;;5050178;28;20117;-82
2022/04/03 07:02:16;;;;;;;1.58;0.60;;;;;;;;;;5046949;28;20024;-81
2022/04/03 07:04:42;;;;;;;1.65;1.02;;;;;;;;;;5049810;28;20025;-82
2022/04/03 07:07:08;;;;;;;2.85;1.02;;;;;;;;;;5052599;28;20033;-83
2022/04/03 07:09:38;;;;;;;0.88;0.30;;;;;;;;;;5051454;28;20051;-83
2022/04/03 07:12:04;;;;;;;1.30;1.00;;;;;;;;;;5051565;28;20029;-82
2022/04/03 07:14:29;;;;;;;2.35;0.90;;;;;;;;;;5050009;28;20508;-81
2022/04/03 07:16:55;;;;;;;0.50;0.50;;;;;;;;;;5050239;28;20108;-84
2022/04/03 07:19:20;;;;;;;8.73;2.95;;;;;;;;;;5050083;28;20056;-84
2022/04/03 07:21:46;;;;;;;0.75;0.63;;;;;;;;;;5051399;28;20393;-84
2022/04/03 07:24:11;;;;;;;1.92;0.90;;;;;;;;;;5051091;28;20120;-84
2022/04/03 07:26:37;;;;;;;0.60;0.52;;;;;;;;;;5051038;28;20021;-84
2022/04/03 07:29:02;;;;;;;1.25;0.95;;;;;;;;;;5049568;28;20029;-84
2022/04/03 07:31:28;;;;;;;1.42;0.40;;;;;;;;;;5051335;28;20017;-86
2022/04/03 07:33:54;;;;;;;3.15;1.13;;;;;;;;;;5051268;28;20072;-82
2022/04/03 07:36:20;;;;;;;0.60;0.40;;;;;;;;;;5049659;28;20068;-83
2022/04/03 07:38:45;;;;;;;0.80;0.77;;;;;;;;;;5049802;28;20419;-82
2022/04/03 07:41:10;;;;;;;1.02;0.50;;;;;;;;;;5051060;28;20040;-83
2022/04/03 07:43:36;;;;;;;0.50;0.40;;;;;;;;;;5050814;28;20033;-81
2022/04/03 07:46:02;;;;;;;0.82;0.50;;;;;;;;;;5051091;28;20142;-82
2022/04/03 07:48:27;;;;;;;3.80;1.13;;;;;;;;;;5050046;28;20029;-82
2022/04/03 07:50:53;;;;;;;0.20;0.20;;;;;;;;;;5050915;28;20432;-82
2022/04/03 07:53:19;;;;;;;4.72;2.03;;;;;;;;;;5049751;28;20557;-84
2022/04/03 07:55:45;;;;;;;2.85;1.05;;;;;;;;;;5050896;28;20066;-83
2022/04/03 07:58:11;;;;;;;2.08;1.17;;;;;;;;;;5049954;28;20029;-85
2022/04/03 08:00:36;;;;;;;6.13;2.40;;;;;;;;;;5051059;28;20110;-84
2022/04/03 08:03:02;;;;;;;2.17;1.08;;;;;;;;;;5053312;28;20480;-83
2022/04/03 08:05:27;;;;;;;0.88;0.50;;;;;;;;;;5054474;28;20032;-84
2022/04/03 08:07:55;;;;;;;2.75;1.50;;;;;;;;;;5053305;28;20013;-84
2022/04/03 08:10:21;;;;;;;1.35;0.57;;;;;;;;;;5054279;28;20042;-83
2022/04/03 08:12:48;;;;;;;0.80;0.47;;;;;;;;;;5054657;28;20043;-84
2022/04/03 08:15:15;;;;;;;0.68;0.55;;;;;;;;;;5054159;28;20114;-83
2022/04/03 08:17:42;;;;;;;0.50;0.40;;;;;;;;;;5053245;28;20025;-82
2022/04/03 08:20:10;;;;;;;1.13;0.75;;;;;;;;;;5054160;28;20035;-84
2022/04/03 08:22:37;;;;;;;4.38;1.40;;;;;;;;;;5053066;28;20082;-82
2022/04/03 08:25:05;;;;;;;0.52;0.50;;;;;;;;;;5053005;28;20115;-82
2022/04/03 08:27:50;;;;;;;2.10;1.00;;;;;;;;;;5052446;28;20487;-83
2022/04/03 08:30:27;;;;;;;0.85;0.40;;;;;;;;;;5054003;28;20102;-84
2022/04/03 08:32:53;;;;;;;1.63;1.08;;;;;;;;;;5052843;28;20500;-86
2022/04/03 08:35:21;;;;;;;1.63;0.85;;;;;;;;;;5053252;28;20029;-83
2022/04/03 08:37:48;;;;;;;2.83;0.90;;;;;;;;;;5053942;28;20021;-85
2022/04/03 08:40:14;;;;;;;1.73;0.82;;;;;;;;;;5052359;28;20075;-83
2022/04/03 08:42:40;;;;;;;1.90;1.02;;;;;;;;;;5053954;28;20029;-86
2022/04/03 08:45:11;;;;;;;1.38;0.63;;;;;;;;;;5054019;28;20425;-84
2022/04/03 08:47:57;;;;;;;0.20;0.20;;;;;;;;;;5053584;28;20025;-81
2022/04/03 08:50:27;;;;;;;1.45;0.70;;;;;;;;;;5052477;28;20033;-85
2022/04/03 08:52:54;;;;;;;1.58;0.93;;;;;;;;;;5053776;28;20032;-82
2022/04/03 08:55:21;;;;;;;2.45;1.13;;;;;;;;;;5051154;28;20032;-84
2022/04/03 08:57:47;;;;;;;0.68;0.30;;;;;;;;;;5053560;28;20118;-81
2022/04/03 09:00:13;;;;;;;0.52;0.38;;;;;;;;;;5053595;28;20377;-81
2022/04/03 09:02:40;;;;;;;0.32;0.22;;;;;;;;;;5053536;28;20024;-85
2022/04/03 09:05:06;;;;;;;1.58;0.30;;;;;;;;;;5053369;28;20039;-81
2022/04/03 09:07:31;;;;;;;1.05;0.60;;;;;;;;;;5053470;28;20043;-83
2022/04/03 09:10:06;;;;;;;2.45;1.40;;;;;;;;;;5052104;28;20392;-83
2022/04/03 09:12:32;;;;;;;0.80;0.70;;;;;;;;;;5049756;28;20421;-84
2022/04/03 09:14:57;;;;;;;0.80;0.57;;;;;;;;;;5051895;28;20120;-83
2022/04/03 09:17:42;;;;;;;0.85;0.60;;;;;;;;;;5053520;28;20029;-82
2022/04/03 09:20:15;;;;;;;1.02;0.70;;;;;;;;;;5053047;28;20397;-83
2022/04/03 09:22:56;;;;;;;0.40;0.40;;;;;;;;;;5053000;28;20495;-82
2022/04/03 09:25:30;;;;;;;0.85;0.75;;;;;;;;;;5052896;28;20032;-83
2022/04/03 09:28:01;;;;;;;1.13;0.73;;;;;;;;;;5051644;28;20461;-82
2022/04/03 09:30:43;;;;;;;0.90;0.70;;;;;;;;;;5052902;28;20465;-83
2022/04/03 09:33:10;;;;;;;1.17;0.70;;;;;;;;;;5051748;28;20045;-84
2022/04/03 09:36:01;;;;;;;2.80;0.60;;;;;;;;;;5053084;28;20021;-82
2022/04/03 09:38:28;;;;;;;0.45;0.32;;;;;;;;;;5050513;28;20021;-85
2022/04/03 09:40:55;;;;;;;0.63;0.40;;;;;;;;;;5051949;28;20028;-85
2022/04/03 09:43:25;;;;;;;0.38;0.30;;;;;;;;;;5051338;28;20385;-83
2022/04/03 09:45:50;;;;;;;0.95;0.50;;;;;;;;;;5052430;28;20028;-82
2022/04/03 09:48:41;;;;;;;1.50;0.65;;;;;;;;;;5052222;28;20472;-84
2022/04/03 09:51:12;;;;;;;0.52;0.40;;;;;;;;;;5052701;28;20025;-86
2022/04/03 09:53:51;;;;;;;0.75;0.50;;;;;;;;;;5054194;28;20040;-83
2022/04/03 09:56:25;;;;;;;0.60;0.40;;;;;;;;;;5052522;28;20044;-82
2022/04/03 09:58:50;;;;;;;0.70;0.50;;;;;;;;;;5051999;28;20664;-82
2022/04/03 10:01:39;;;;;;;0.73;0.40;;;;;;;;;;5052429;28;20028;-82
2022/04/03 10:04:16;;;;;;;0.45;0.43;;;;;;;;;;5047359;28;20043;-82
2022/04/03 10:06:43;;;;;;;0.70;0.40;;;;;;;;;;5050387;28;20025;-86
2022/04/03 10:09:14;;;;;;;1.05;0.35;;;;;;;;;;5046055;28;20063;-84
2022/04/03 10:11:41;;;;;;;0.85;0.40;;;;;;;;;;5045674;28;20489;-83
2022/04/03 10:14:08;;;;;;;0.88;0.40;;;;;;;;;;5050198;28;20479;-85
2022/04/03 10:16:34;;;;;;;1.77;0.90;;;;;;;;;;5050087;28;20112;-85
2022/04/03 10:18:59;;;;;;;1.33;0.80;;;;;;;;;;5050391;28;20111;-82
2022/04/03 10:21:36;;;;;;;0.47;0.47;;;;;;;;;;5051537;28;20057;-84
2022/04/03 10:24:14;;;;;;;0.95;0.32;;;;;;;;;;5047242;28;20472;-83
2022/04/03 10:26:42;;;;;;;1.80;0.75;;;;;;;;;;5051182;28;20487;-87
2022/04/03 10:29:09;;;;;;;2.25;0.90;;;;;;;;;;5050427;28;20521;-86
2022/04/03 10:31:37;;;;;;;2.17;0.77;;;;;;;;;;5050231;28;20025;-85
2022/04/03 10:34:02;;;;;;;0.98;0.50;;;;;;;;;;5048942;28;20073;-85
2022/04/03 10:36:30;;;;;;;2.13;1.00;;;;;;;;;;5051619;28;20067;-85
2022/04/03 10:39:08;;;;;;;1.27;0.90;;;;;;;;;;5048795;28;20059;-85
2022/04/03 10:41:40;;;;;;;1.83;0.90;;;;;;;;;;5049833;28;20147;-85
2022/04/03 10:44:16;;;;;;;2.83;0.98;;;;;;;;;;5051099;28;20029;-84
2022/04/03 10:47:03;;;;;;;3.33;1.10;;;;;;;;;;5050772;28;20016;-85
2022/04/03 10:49:30;;;;;;;5.35;1.20;;;;;;;;;;5049368;28;20384;-85
2022/04/03 10:52:01;;;;;;;1.42;0.80;;;;;;;;;;5049683;28;20033;-82
2022/04/03 10:54:31;;;;;;;1.95;0.73;;;;;;;;;;5046152;28;20041;-85
2022/04/03 10:57:35;;;;;;;1.40;0.82;;;;;;;;;;5051410;28;20024;-82
2022/04/03 11:00:12;;;;;;;2.85;1.35;;;;;;;;;;5049418;28;20154;-85
2022/04/03 11:02:45;;;;;;;2.30;1.50;;;;;;;;;;5048443;28;20103;-84
2022/04/03 11:05:41;;;;;;;1.85;1.50;;;;;;;;;;5050085;28;20036;-84
2022/04/03 11:08:06;;;;;;;1.98;1.60;;;;;;;;;;5033665;28;20406;-86
2022/04/03 11:10:54;;;;;;;3.55;1.95;;;;;;;;;;5049490;28;20021;-84
2022/04/03 11:13:24;;;;;;;3.55;1.98;;;;;;;;;;5051001;28;20079;-86
2022/04/03 11:15:53;;;;;;;2.40;1.65;;;;;;;;;;5050194;28;20037;-85
2022/04/03 11:18:28;;;;;;;1.40;0.88;;;;;;;;;;5051059;28;20492;-83
2022/04/03 11:21:26;;;;;;;1.73;1.02;;;;;;;;;;5050808;28;20025;-85
2022/04/03 11:24:02;;;;;;;3.95;1.77;;;;;;;;;;5050180;28;20506;-86
2022/04/03 11:26:28;;;;;;;2.65;1.30;;;;;;;;;;5050886;28;20040;-83
2022/04/03 11:28:55;;;;;;;2.10;1.33;;;;;;;;;;5049183;28;20103;-83
2022/04/03 11:31:20;;;;;;;3.45;2.15;;;;;;;;;;5050272;28;20026;-82
2022/04/03 11:33:46;;;;;;;2.67;1.90;;;;;;;;;;5049616;28;20043;-84
2022/04/03 11:36:14;;;;;;;2.80;2.10;;;;;;;;;;5053070;28;20473;-82
2022/04/03 11:38:47;;;;;;;3.35;1.80;;;;;;;;;;5053539;28;20036;-83
2022/04/03 11:41:17;;;;;;;3.05;1.63;;;;;;;;;;5055165;28;20039;-82
2022/04/03 11:43:43;;;;;;;2.72;1.45;;;;;;;;;;5053518;28;20025;-85
2022/04/03 11:46:09;;;;;;;1.00;0.82;;;;;;;;;;5055155;28;20056;-82
2022/04/03 11:48:45;;;;;;;3.55;2.20;;;;;;;;;;5052981;28;20067;-85
2022/04/03 11:51:14;;;;;;;4.63;2.65;;;;;;;;;;5053790;28;20021;-83
2022/04/03 11:53:42;;;;;;;4.05;2.45;;;;;;;;;;5053455;28;20024;-82
2022/04/03 11:56:13;;;;;;;4.60;3.08;;;;;;;;;;5053383;28;20043;-83
2022/04/03 11:58:53;;;;;;;3.42;3.08;;;;;;;;;;5054587;28;20025;-82
2022/04/03 12:01:38;;;;;;;5.50;3.22;;;;;;;;;;5054371;28;20533;-81
2022/04/03 12:04:12;;;;;;;4.55;3.22;;;;;;;;;;5054606;28;20443;-86
2022/04/03 12:06:40;;;;;;;4.75;3.17;;;;;;;;;;5054503;28;20035;-83
2022/04/03 12:09:10;;;;;;;4.65;3.58;;;;;;;;;;5051827;28;20431;-84
2022/04/03 12:11:40;;;;;;;4.95;4.00;;;;;;;;;;5053032;28;20515;-81
2022/04/03 12:14:07;;;;;;;5.45;3.65;;;;;;;;;;5051856;28;20024;-83
2022/04/03 12:16:40;;;;;;;6.28;4.20;;;;;;;;;;5055835;28;20127;-82
2022/04/03 12:19:15;;;;;;;7.78;5.00;;;;;;;;;;5054703;28;20037;-83
2022/04/03 12:21:46;;;;;;;6.00;3.85;;;;;;;;;;5053888;28;20940;-87
2022/04/03 12:24:22;;;;;;;5.40;3.30;;;;;;;;;;5052827;28;20440;-85
2022/04/03 12:26:58;;;;;;;6.57;4.32;;;;;;;;;;5052790;28;20025;-87
2022/04/03 12:29:26;;;;;;;9.02;4.78;;;;;;;;;;5056421;28;20074;-84
2022/04/03 12:31:56;;;;;;;7.78;4.57;;;;;;;;;;5059500;28;20029;-84
2022/04/03 12:34:22;;;;;;;7.75;3.95;;;;;;;;;;5051545;28;20073;-82
2022/04/03 12:36:52;;;;;;;6.00;4.15;;;;;;;;;;5052200;28;20504;-84
2022/04/03 12:39:34;;;;;;;7.47;4.40;;;;;;;;;;5049097;28;20036;-84
2022/04/03 12:42:16;;;;;;;7.55;4.40;;;;;;;;;;5053188;28;20029;-84
2022/04/03 12:44:44;;;;;;;7.03;4.43;;;;;;;;;;5053440;28;20039;-87
2022/04/03 12:47:34;;;;;;;10.98;6.88;;;;;;;;;;5051264;28;20052;-85
2022/04/03 12:50:03;;;;;;;16.30;7.13;;;;;;;;;;5040299;28;20814;-88
2022/04/03 12:52:39;;;;;;;9.48;5.47;;;;;;;;;;5052229;28;20028;-85
2022/04/03 12:55:32;;;;;;;8.25;5.70;;;;;;;;;;5051527;28;20039;-86
2022/04/03 13:01:17;;;;;;;8.32;4.85;;;;;;;;;;5052654;28;20043;-84
2022/04/03 13:03:49;;;;;;;8.02;5.47;;;;;;;;;;5008205;28;20389;-83
2022/04/03 13:06:22;;;;;;;11.75;7.35;;;;;;;;;;5046985;28;20056;-84
2022/04/03 13:08:58;;;;;;;9.90;6.65;;;;;;;;;;5047945;28;20473;-84
2022/04/03 13:11:39;;;;;;;9.63;6.80;;;;;;;;;;5051573;28;20027;-84
2022/04/03 13:14:28;;;;;;;11.25;7.20;;;;;;;;;;5051065;28;20025;-84
2022/04/03 13:17:02;;;;;;;6.35;4.88;;;;;;;;;;5051010;28;20029;-83
2022/04/03 13:19:29;;;;;;;8.27;5.00;;;;;;;;;;5052045;28;20032;-83
2022/04/03 13:21:57;;;;;;;11.45;7.32;;;;;;;;;;5052821;28;20024;-82
2022/04/03 13:24:23;;;;;;;13.85;9.15;;;;;;;;;;5051544;28;20147;-84
2022/04/03 13:26:50;;;;;;;8.95;5.85;;;;;;;;;;5051332;28;20520;-84
2022/04/03 13:29:18;;;;;;;5.50;3.92;;;;;;;;;;5051688;28;20106;-84
2022/04/03 13:31:44;;;;;;;5.75;3.75;;;;;;;;;;5052629;28;20051;-84
2022/04/03 13:34:10;;;;;;;7.40;4.35;;;;;;;;;;5052151;28;20191;-81
2022/04/03 13:36:36;;;;;;;7.60;4.95;;;;;;;;;;5052718;28;20120;-83
2022/04/03 13:39:04;;;;;;;9.25;5.25;;;;;;;;;;5052445;28;20380;-82
2022/04/03 13:41:30;;;;;;;34.83;19.75;;;;;;;;;;5051922;28;20469;-82
2022/04/03 13:43:56;;;;;;;9.45;5.88;;;;;;;;;;5052597;28;20031;-84
2022/04/03 13:46:21;;;;;;;8.90;5.47;;;;;;;;;;5051432;28;20036;-83
2022/04/03 13:48:48;;;;;;;7.78;4.97;;;;;;;;;;5050617;28;20091;-83
2022/04/03 13:51:15;;;;;;;13.68;8.85;;;;;;;;;;5052196;28;20025;-82
2022/04/03 13:53:41;;;;;;;12.25;7.63;;;;;;;;;;5051151;28;20031;-84
2022/04/03 13:56:07;;;;;;;10.95;7.57;;;;;;;;;;5051235;28;20400;-86
2022/04/03 13:58:34;;;;;;;17.45;10.23;;;;;;;;;;5050512;28;20063;-87
2022/04/03 14:01:01;;;;;;;14.00;9.07;;;;;;;;;;5051502;28;20052;-83
2022/04/03 14:03:28;;;;;;;13.40;8.38;;;;;;;;;;5051683;28;20027;-85
2022/04/03 14:05:54;;;;;;;17.42;10.02;;;;;;;;;;5049610;28;20539;-83
2022/04/03 14:08:19;;;;;;;15.52;10.20;;;;;;;;;;5050764;28;20020;-82
2022/04/03 14:10:49;;;;;;;18.02;11.85;;;;;;;;;;5050990;28;20380;-84
2022/04/03 14:13:16;;;;;;;16.63;9.27;;;;;;;;;;5048100;28;20086;-83
2022/04/03 14:15:42;;;;;;;14.88;8.98;;;;;;;;;;5051477;28;20519;-82
2022/04/03 14:18:08;;;;;;;13.38;8.90;;;;;;;;;;5051355;28;20112;-82
2022/04/03 14:20:34;;;;;;;19.58;12.73;;;;;;;;;;5051402;28;20025;-85
2022/04/03 14:23:00;;;;;;;14.95;11.07;;;;;;;;;;5049986;28;20052;-83
2022/04/03 14:25:26;;;;;;;15.35;10.25;;;;;;;;;;5051144;28;20040;-84
2022/04/03 14:27:52;;;;;;;14.52;9.07;;;;;;;;;;5049348;28;20071;-83
2022/04/03 14:30:18;;;;;;;15.80;10.38;;;;;;;;;;5049664;28;20070;-83
2022/04/03 14:32:46;;;;;;;12.32;8.52;;;;;;;;;;5049654;28;20491;-83
2022/04/03 14:35:17;;;;;;;13.93;8.88;;;;;;;;;;5051548;28;20043;-86
2022/04/03 14:37:44;;;;;;;17.48;11.18;;;;;;;;;;5050933;28;20050;-83
2022/04/03 14:40:11;;;;;;;16.67;11.40;;;;;;;;;;5046808;28;20036;-86
2022/04/03 14:42:37;;;;;;;14.00;8.65;;;;;;;;;;5051269;28;20029;-86
2022/04/03 14:45:04;;;;;;;14.77;9.93;;;;;;;;;;5050448;28;20465;-87
2022/04/03 14:47:30;;;;;;;17.83;12.25;;;;;;;;;;5049795;28;20024;-83
2022/04/03 14:49:56;;;;;;;33.53;21.92;;;;;;;;;;5049874;28;20025;-84